Time;durP1;ratioP1;P1;durP2;ratioP2;P2;SDS_P1;SDS_P2;PMS_P1;PMS_P2;Temp;Humidity;BMP_temperature;BMP_pressure;BME280_temperature;BME280_humidity;BME280_pressure;Samples;Min_cycle;Max_cycle;Signal;HPM_P1;HPM_P2
2022/01/17 00:01:15;;;;;;;16.15;8.75;;;16.60;62.90;;;;;;5007489;28;45262;-84
2022/01/17 00:03:44;;;;;;;13.43;7.80;;;16.50;62.40;;;;;;5003754;28;47100;-85
2022/01/17 00:06:13;;;;;;;17.67;8.93;;;16.90;64.60;;;;;;5007908;28;45669;-86
2022/01/17 00:08:43;;;;;;;15.98;8.20;;;16.70;65.40;;;;;;5004457;28;44802;-85
2022/01/17 00:11:14;;;;;;;11.90;7.80;;;17.30;64.10;;;;;;5003737;28;45226;-85
2022/01/17 00:13:52;;;;;;;13.40;7.90;;;16.70;62.10;;;;;;5003685;28;47258;-84
2022/01/17 00:16:32;;;;;;;12.73;7.78;;;16.70;62.90;;;;;;5004821;28;45066;-84
2022/01/17 00:19:30;;;;;;;12.70;7.38;;;16.60;62.90;;;;;;5003575;28;45394;-85
2022/01/17 00:21:59;;;;;;;15.68;8.10;;;16.60;61.40;;;;;;5004379;28;44933;-86
2022/01/17 00:24:35;;;;;;;13.63;7.78;;;16.70;62.00;;;;;;5001159;28;45798;-86
2022/01/17 00:27:02;;;;;;;12.30;7.28;;;16.60;61.50;;;;;;5002331;28;45271;-85
2022/01/17 00:29:31;;;;;;;14.00;7.72;;;16.60;61.80;;;;;;5003948;28;44838;-84
2022/01/17 00:32:03;;;;;;;12.05;6.90;;;16.70;61.80;;;;;;4990940;28;45376;-84
2022/01/17 00:34:31;;;;;;;14.57;8.05;;;16.60;61.40;;;;;;5004016;28;45877;-84
2022/01/17 00:37:00;;;;;;;13.02;8.07;;;16.40;61.70;;;;;;5006756;28;45155;-86
2022/01/17 00:39:32;;;;;;;12.27;7.32;;;16.60;61.60;;;;;;5002746;28;45375;-86
2022/01/17 00:42:03;;;;;;;12.55;7.47;;;18.10;65.40;;;;;;5004261;28;45504;-85
2022/01/17 00:44:34;;;;;;;12.73;7.53;;;16.60;61.60;;;;;;5023032;28;47229;-85
2022/01/17 00:47:03;;;;;;;13.02;7.65;;;16.60;63.20;;;;;;5000853;28;45166;-85
2022/01/17 00:49:34;;;;;;;11.77;7.20;;;16.60;63.10;;;;;;5003148;28;45274;-85
2022/01/17 00:52:04;;;;;;;13.32;8.02;;;16.60;62.10;;;;;;5019152;28;45222;-86
2022/01/17 00:54:32;;;;;;;12.77;6.97;;;17.00;62.40;;;;;;5002551;28;45524;-86
2022/01/17 00:57:02;;;;;;;13.40;7.53;;;16.70;63.10;;;;;;5001363;28;44761;-86
2022/01/17 00:59:30;;;;;;;11.95;7.40;;;16.70;62.90;;;;;;5002856;28;45298;-85
2022/01/17 01:01:58;;;;;;;13.85;8.10;;;18.80;66.50;;;;;;5002934;28;44986;-85
2022/01/17 01:04:27;;;;;;;14.00;7.97;;;16.80;63.50;;;;;;5003327;28;47262;-85
2022/01/17 01:06:55;;;;;;;13.82;7.68;;;16.60;61.50;;;;;;5011978;28;45814;-84
2022/01/17 01:09:24;;;;;;;13.15;7.70;;;18.30;64.00;;;;;;5003976;28;45353;-84
2022/01/17 01:11:55;;;;;;;12.95;7.60;;;17.10;64.00;;;;;;5003450;28;44835;-86
2022/01/17 01:14:23;;;;;;;16.75;8.90;;;16.80;63.00;;;;;;5001636;28;45800;-86
2022/01/17 01:16:54;;;;;;;14.48;8.13;;;16.80;64.60;;;;;;4991181;28;45107;-85
2022/01/17 01:19:28;;;;;;;14.85;8.50;;;16.70;63.20;;;;;;5001438;28;45111;-86
2022/01/17 01:27:39;;;;;;;14.80;8.85;;;15.80;62.40;;;;;;5002623;28;45393;-85
2022/01/17 01:27:57;;;;;;;18.63;9.50;;;16.60;61.30;;;;;;5010107;28;45379;-86
2022/01/17 01:30:28;;;;;;;15.90;8.70;;;16.70;63.10;;;;;;5002324;28;45102;-87
2022/01/17 01:32:59;;;;;;;14.50;8.27;;;16.80;62.00;;;;;;5002217;28;44873;-86
2022/01/17 01:35:29;;;;;;;13.70;7.85;;;16.90;63.80;;;;;;5007312;28;46981;-85
2022/01/17 01:38:02;;;;;;;15.70;8.85;;;16.60;61.50;;;;;;5004567;28;45157;-85
2022/01/17 01:40:29;;;;;;;16.27;8.77;;;16.50;63.30;;;;;;5002808;28;44788;-85
2022/01/17 01:42:57;;;;;;;13.40;7.55;;;16.60;62.90;;;;;;5003711;28;45189;-84
2022/01/17 01:45:27;;;;;;;13.60;7.90;;;16.60;63.40;;;;;;5002328;28;46254;-87
2022/01/17 01:47:58;;;;;;;13.25;7.90;;;16.90;63.10;;;;;;5002362;28;45226;-86
2022/01/17 01:50:26;;;;;;;16.20;8.75;;;16.70;62.20;;;;;;5006936;28;45306;-86
2022/01/17 01:52:55;;;;;;;14.70;8.40;;;16.80;62.60;;;;;;5002648;28;45227;-85
2022/01/17 01:55:28;;;;;;;15.85;9.10;;;16.70;63.50;;;;;;5001178;28;47218;-86
2022/01/17 01:57:57;;;;;;;14.82;8.70;;;16.70;61.00;;;;;;5002134;28;45227;-86
2022/01/17 02:00:26;;;;;;;16.27;9.27;;;16.70;63.50;;;;;;5013936;28;45153;-86
2022/01/17 02:02:57;;;;;;;16.85;9.23;;;16.60;61.70;;;;;;5002509;28;44898;-86
2022/01/17 02:05:32;;;;;;;15.68;9.23;;;16.70;61.40;;;;;;5001330;28;45331;-86
2022/01/17 02:08:05;;;;;;;15.48;8.80;;;16.70;60.90;;;;;;5000795;28;45100;-86
2022/01/17 02:10:35;;;;;;;18.83;10.25;;;16.70;61.20;;;;;;5001174;28;45146;-86
2022/01/17 02:13:03;;;;;;;16.20;9.30;;;16.60;60.90;;;;;;5002348;28;44954;-85
2022/01/17 02:15:31;;;;;;;16.38;9.48;;;17.10;63.50;;;;;;5002770;28;46448;-85
2022/01/17 02:18:01;;;;;;;17.20;9.60;;;16.80;61.70;;;;;;5000780;28;44747;-86
2022/01/17 02:20:42;;;;;;;16.88;9.32;;;16.60;60.70;;;;;;5003410;28;44884;-88
2022/01/17 02:23:14;;;;;;;15.95;9.05;;;16.60;63.60;;;;;;5015631;28;46210;-86
2022/01/17 02:25:43;;;;;;;16.48;8.82;;;16.60;61.10;;;;;;4997204;28;45122;-86
2022/01/17 02:28:15;;;;;;;17.20;9.48;;;16.70;61.30;;;;;;5012130;28;45098;-86
2022/01/17 02:30:44;;;;;;;17.65;10.20;;;16.50;61.60;;;;;;5009930;28;45202;-86
2022/01/17 02:33:12;;;;;;;16.15;9.20;;;16.70;61.20;;;;;;5001672;28;45290;-86
2022/01/17 02:35:44;;;;;;;15.18;9.13;;;16.60;62.10;;;;;;5005732;28;47533;-86
2022/01/17 02:38:21;;;;;;;16.15;9.48;;;15.60;62.10;;;;;;5001377;28;45135;-87
2022/01/17 02:40:51;;;;;;;16.63;8.85;;;17.00;66.40;;;;;;4999009;28;44847;-86
2022/01/17 02:43:20;;;;;;;15.55;8.57;;;17.10;62.00;;;;;;5001557;28;45338;-86
2022/01/17 02:48:38;;;;;;;16.48;9.48;;;16.70;64.20;;;;;;5001123;28;45226;-86
2022/01/17 02:51:15;;;;;;;17.05;9.98;;;16.70;61.10;;;;;;5009756;28;45161;-87
2022/01/17 02:53:49;;;;;;;15.15;9.80;;;18.10;64.10;;;;;;4994889;28;45229;-87
2022/01/17 02:56:16;;;;;;;16.95;9.60;;;16.80;60.90;;;;;;5001325;28;47173;-86
2022/01/17 02:58:45;;;;;;;16.70;9.73;;;18.70;65.60;;;;;;5001736;28;44633;-86
2022/01/17 03:01:15;;;;;;;15.98;9.18;;;16.80;62.70;;;;;;5000101;28;45558;-86
2022/01/17 03:03:46;;;;;;;16.55;9.60;;;16.70;63.90;;;;;;5001537;28;45268;-86
2022/01/17 03:06:20;;;;;;;16.42;9.93;;;16.60;61.60;;;;;;5006075;28;48208;-87
2022/01/17 03:08:52;;;;;;;17.02;10.05;;;17.80;62.50;;;;;;4997970;28;45254;-88
2022/01/17 03:11:22;;;;;;;19.08;10.07;;;16.80;64.80;;;;;;4998381;28;45276;-87
2022/01/17 03:13:51;;;;;;;15.75;9.88;;;16.70;60.80;;;;;;4981312;28;45322;-87
2022/01/17 03:16:22;;;;;;;15.98;9.52;;;17.30;63.40;;;;;;4994314;28;45374;-86
2022/01/17 03:18:51;;;;;;;16.92;9.77;;;17.40;61.20;;;;;;4999039;28;45010;-86
2022/01/17 03:21:37;;;;;;;16.58;9.38;;;16.60;61.50;;;;;;5002614;28;45147;-87
2022/01/17 03:24:11;;;;;;;17.20;9.80;;;16.70;61.80;;;;;;5020289;28;45348;-87
2022/01/17 03:26:41;;;;;;;16.60;9.25;;;16.80;62.40;;;;;;5022444;28;47807;-86
2022/01/17 03:29:09;;;;;;;16.95;9.77;;;16.70;61.40;;;;;;5004769;28;45187;-87
2022/01/17 03:31:38;;;;;;;16.00;9.63;;;17.00;64.80;;;;;;5005017;28;44709;-86
2022/01/17 03:34:29;;;;;;;15.15;9.30;;;16.80;63.40;;;;;;5004742;28;45337;-87
2022/01/17 03:37:15;;;;;;;18.00;9.52;;;16.70;61.40;;;;;;5006622;28;45154;-87
2022/01/17 03:39:47;;;;;;;16.80;9.00;;;16.70;64.30;;;;;;5004724;28;45329;-87
2022/01/17 03:42:18;;;;;;;15.77;9.40;;;16.90;63.10;;;;;;5016527;28;45125;-87
2022/01/17 03:44:48;;;;;;;16.25;9.05;;;16.80;62.80;;;;;;5009465;28;45382;-86
2022/01/17 03:47:16;;;;;;;17.65;9.68;;;17.10;67.00;;;;;;5004069;28;45662;-87
2022/01/17 03:49:45;;;;;;;15.57;9.60;;;16.70;62.30;;;;;;5003438;28;45151;-86
2022/01/17 03:52:17;;;;;;;16.73;9.65;;;16.70;60.50;;;;;;5003943;28;45198;-86
2022/01/17 03:54:46;;;;;;;16.48;9.23;;;16.90;61.30;;;;;;5005753;28;44841;-87
2022/01/17 03:57:15;;;;;;;13.98;9.15;;;16.80;62.40;;;;;;5006653;28;45830;-88
2022/01/17 03:59:53;;;;;;;14.32;8.45;;;16.70;63.40;;;;;;5004961;28;45146;-87
2022/01/17 04:02:22;;;;;;;14.13;8.73;;;16.80;64.90;;;;;;5006441;28;45131;-86
2022/01/17 04:04:51;;;;;;;15.52;9.43;;;16.90;60.60;;;;;;5004462;28;45648;-86
2022/01/17 04:07:23;;;;;;;16.20;9.65;;;16.80;60.90;;;;;;5004154;28;45188;-87
2022/01/17 04:09:54;;;;;;;14.45;9.02;;;16.70;63.10;;;;;;5003745;28;45248;-86
2022/01/17 04:12:31;;;;;;;16.10;9.48;;;16.40;60.00;;;;;;5019727;28;45139;-87
2022/01/17 04:14:59;;;;;;;17.77;9.10;;;16.70;60.20;;;;;;5005984;28;45206;-87
2022/01/17 04:17:29;;;;;;;11.70;8.48;;;16.70;60.00;;;;;;5003123;28;45519;-87
2022/01/17 04:20:07;;;;;;;13.30;8.27;;;17.10;64.20;;;;;;5004137;28;45207;-86
2022/01/17 04:22:40;;;;;;;14.35;8.80;;;16.90;65.40;;;;;;4999667;28;45456;-86
2022/01/17 04:25:10;;;;;;;14.27;8.18;;;16.80;60.70;;;;;;4984934;28;45127;-86
2022/01/17 04:27:39;;;;;;;13.75;8.85;;;16.80;59.90;;;;;;5002063;28;46567;-86
2022/01/17 04:32:58;;;;;;;13.20;8.25;;;16.90;62.10;;;;;;4994084;28;45105;-87
2022/01/17 04:35:28;;;;;;;15.57;9.20;;;16.00;62.20;;;;;;5015428;28;45239;-87
2022/01/17 04:38:01;;;;;;;15.35;8.02;;;16.70;60.00;;;;;;5004468;28;45546;-87
2022/01/17 04:40:35;;;;;;;12.13;7.95;;;16.70;60.40;;;;;;5002076;28;45474;-87
2022/01/17 04:43:04;;;;;;;14.57;8.20;;;16.90;63.60;;;;;;5003590;28;45298;-87
2022/01/17 04:45:35;;;;;;;14.30;8.32;;;17.10;62.80;;;;;;5003382;28;45255;-88
2022/01/17 04:48:09;;;;;;;12.95;7.88;;;15.40;60.30;;;;;;5005936;28;45539;-88
2022/01/17 04:50:40;;;;;;;14.65;9.05;;;16.80;60.70;;;;;;5021222;28;45166;-88
2022/01/17 04:53:20;;;;;;;10.82;7.40;;;17.10;60.00;;;;;;5003645;28;45096;-86
2022/01/17 04:55:47;;;;;;;14.18;8.50;;;16.70;60.70;;;;;;5003028;28;45152;-86
2022/01/17 04:58:19;;;;;;;14.82;8.60;;;16.70;61.20;;;;;;5002910;28;46428;-87
2022/01/17 05:00:49;;;;;;;14.90;8.48;;;16.80;62.60;;;;;;5002192;28;45256;-87
2022/01/17 05:03:21;;;;;;;13.55;7.93;;;16.90;62.60;;;;;;4993873;28;45076;-86
2022/01/17 05:05:48;;;;;;;14.55;8.57;;;16.20;63.90;;;;;;4998136;28;45433;-84
2022/01/17 05:08:19;;;;;;;13.27;8.00;;;16.70;61.20;;;;;;5003186;28;47179;-88
2022/01/17 05:10:51;;;;;;;14.80;8.57;;;17.00;62.80;;;;;;5002808;28;44736;-82
2022/01/17 05:13:30;;;;;;;14.50;8.73;;;16.70;60.50;;;;;;5002456;28;44800;-84
2022/01/17 05:21:22;;;;;;;12.23;7.80;;;17.20;61.80;;;;;;5003748;28;45318;-86
2022/01/17 05:23:54;;;;;;;15.73;8.35;;;16.70;60.00;;;;;;5002601;28;45216;-85
2022/01/17 05:26:36;;;;;;;15.23;8.77;;;16.60;60.70;;;;;;5003422;28;45122;-87
2022/01/17 05:29:07;;;;;;;13.50;8.43;;;16.70;59.20;;;;;;5003528;28;45171;-86
2022/01/17 05:31:35;;;;;;;13.25;7.65;;;17.00;61.80;;;;;;5001404;28;45270;-85
2022/01/17 05:34:05;;;;;;;11.98;8.15;;;16.70;62.40;;;;;;4995577;28;45358;-86
2022/01/17 05:36:36;;;;;;;13.65;8.10;;;17.90;62.90;;;;;;5005954;28;44865;-85
2022/01/17 05:39:06;;;;;;;14.43;8.35;;;16.90;61.20;;;;;;5003016;28;46297;-85
2022/01/17 05:41:37;;;;;;;13.50;8.18;;;16.60;59.40;;;;;;5003254;28;46146;-86
2022/01/17 05:44:06;;;;;;;13.73;8.02;;;16.70;59.40;;;;;;5001082;28;45241;-86
2022/01/17 05:46:33;;;;;;;15.27;8.50;;;16.60;63.10;;;;;;5005221;28;44819;-86
2022/01/17 05:49:03;;;;;;;13.98;8.18;;;16.80;62.40;;;;;;5004649;28;47180;-87
2022/01/17 05:51:34;;;;;;;13.00;7.55;;;18.60;63.10;;;;;;5001077;28;45319;-87
2022/01/17 05:54:07;;;;;;;13.80;7.22;;;14.70;61.90;;;;;;5001757;28;45195;-86
2022/01/17 05:56:37;;;;;;;11.95;7.28;;;16.60;62.80;;;;;;5003093;28;45281;-84
2022/01/17 05:59:13;;;;;;;11.00;6.35;;;17.10;62.60;;;;;;5002113;28;45257;-83
2022/01/17 06:01:49;;;;;;;11.68;6.88;;;16.60;61.90;;;;;;5004278;28;45183;-87
2022/01/17 06:04:19;;;;;;;12.13;7.65;;;16.90;59.80;;;;;;5005043;28;44759;-87
2022/01/17 06:06:52;;;;;;;11.98;6.93;;;18.90;62.40;;;;;;5001552;28;45372;-85
2022/01/17 06:09:23;;;;;;;11.77;7.15;;;16.70;62.50;;;;;;5003116;28;46865;-85
2022/01/17 06:11:54;;;;;;;9.90;6.03;;;16.70;59.90;;;;;;5003257;28;45093;-85
2022/01/17 06:14:24;;;;;;;10.20;6.18;;;16.70;63.40;;;;;;5002097;28;44889;-86
2022/01/17 06:16:53;;;;;;;12.35;6.93;;;16.80;61.20;;;;;;5002000;28;45010;-88
2022/01/17 06:19:20;;;;;;;12.43;6.25;;;16.70;64.70;;;;;;5002410;28;47533;-87
2022/01/17 06:21:51;;;;;;;10.20;6.95;;;17.00;65.30;;;;;;4999691;28;45616;-87
2022/01/17 06:24:19;;;;;;;11.38;6.68;;;16.70;62.40;;;;;;5000325;28;45392;-86
2022/01/17 06:26:51;;;;;;;10.95;6.63;;;16.70;62.00;;;;;;5002652;28;44837;-84
2022/01/17 06:29:31;;;;;;;11.73;6.45;;;17.70;61.60;;;;;;5002679;28;45733;-82
2022/01/17 06:31:58;;;;;;;10.52;6.13;;;16.50;63.20;;;;;;4985611;28;45553;-80
2022/01/17 06:34:33;;;;;;;10.60;6.28;;;16.60;61.50;;;;;;5000778;28;45219;-87
2022/01/17 06:37:05;;;;;;;10.48;6.30;;;16.60;60.90;;;;;;5000029;28;45356;-87
2022/01/17 06:39:34;;;;;;;11.52;6.80;;;16.90;60.80;;;;;;5000888;28;47283;-86
2022/01/17 06:42:04;;;;;;;14.23;7.07;;;16.70;60.40;;;;;;5001090;28;45306;-86
2022/01/17 06:44:46;;;;;;;11.55;6.75;;;16.70;63.50;;;;;;5003419;28;44727;-88
2022/01/17 06:47:21;;;;;;;10.30;6.10;;;16.90;63.20;;;;;;5006200;28;45234;-89
2022/01/17 06:52:45;;;;;;;12.43;7.00;;;17.00;60.50;;;;;;5007232;28;44696;-87
2022/01/17 06:55:12;;;;;;;10.90;6.93;;;16.80;60.70;;;;;;4985416;28;45306;-86
2022/01/17 06:57:40;;;;;;;11.50;6.95;;;16.50;62.20;;;;;;5008460;28;45139;-85
2022/01/17 07:00:29;;;;;;;10.38;6.70;;;17.50;63.30;;;;;;5010955;28;47504;-88
2022/01/17 07:02:59;;;;;;;11.27;5.97;;;16.90;61.30;;;;;;5009900;28;45384;-87
2022/01/17 07:05:28;;;;;;;12.73;6.68;;;17.00;64.00;;;;;;5007350;28;44755;-87
2022/01/17 07:11:26;;;;;;;12.00;6.70;;;17.50;60.60;;;;;;4989799;28;45200;-85
2022/01/17 07:13:59;;;;;;;10.05;5.85;;;17.30;60.40;;;;;;5008286;28;45651;-85
2022/01/17 07:16:29;;;;;;;11.25;6.47;;;16.80;60.00;;;;;;5007133;28;45122;-85
2022/01/17 07:18:56;;;;;;;11.07;6.05;;;17.00;63.90;;;;;;5006429;28;45784;-87
2022/01/17 07:21:23;;;;;;;11.30;6.80;;;15.70;62.60;;;;;;5006655;28;46183;-87
2022/01/17 07:23:53;;;;;;;13.15;7.18;;;16.80;63.90;;;;;;5006458;28;45163;-82
2022/01/17 07:26:21;;;;;;;10.45;6.70;;;16.80;61.40;;;;;;5007315;28;44821;-87
2022/01/17 07:28:51;;;;;;;12.07;7.45;;;16.60;63.00;;;;;;5009799;28;45177;-87
2022/01/17 07:31:18;;;;;;;11.25;7.00;;;16.90;59.90;;;;;;5007104;28;45781;-87
2022/01/17 07:33:47;;;;;;;12.13;7.13;;;16.80;62.90;;;;;;5004703;28;45362;-80
2022/01/17 07:36:18;;;;;;;12.73;7.90;;;16.70;59.40;;;;;;4998680;28;45373;-82
2022/01/17 07:38:52;;;;;;;13.10;6.97;;;16.80;59.30;;;;;;5000105;28;45383;-89
2022/01/17 07:41:21;;;;;;;11.30;6.75;;;16.90;59.50;;;;;;5005117;28;45667;-88
2022/01/17 07:43:50;;;;;;;13.25;7.85;;;16.80;59.50;;;;;;5008785;28;45270;-86
2022/01/17 07:46:24;;;;;;;13.20;7.75;;;16.80;63.80;;;;;;5008695;28;45214;-87
2022/01/17 07:51:56;;;;;;;13.60;7.80;;;16.30;61.00;;;;;;5006211;28;46246;-88
2022/01/17 07:54:27;;;;;;;13.82;7.88;;;17.20;60.30;;;;;;4996829;28;45746;-87
2022/01/17 07:56:56;;;;;;;13.90;8.02;;;17.90;62.50;;;;;;5008143;28;44870;-87
2022/01/17 07:59:28;;;;;;;13.35;7.63;;;19.00;64.50;;;;;;5007315;28;45187;-87
2022/01/17 08:01:56;;;;;;;15.52;8.43;;;19.30;61.70;;;;;;5006824;28;46364;-86
2022/01/17 08:04:25;;;;;;;12.40;7.50;;;16.80;61.40;;;;;;4992034;28;45055;-86
2022/01/17 08:06:52;;;;;;;11.18;7.25;;;16.90;59.00;;;;;;5001227;28;45170;-86
2022/01/17 08:09:22;;;;;;;14.82;8.65;;;18.00;61.90;;;;;;5003093;28;44850;-85
2022/01/17 08:11:51;;;;;;;13.45;8.35;;;17.20;59.60;;;;;;5002161;28;45677;-86
2022/01/17 08:14:19;;;;;;;13.65;7.88;;;17.10;60.70;;;;;;5002203;28;45361;-86
2022/01/17 08:16:47;;;;;;;12.60;8.20;;;16.90;59.10;;;;;;5002333;28;45205;-86
2022/01/17 08:19:16;;;;;;;12.23;7.25;;;18.90;62.60;;;;;;5001577;28;45248;-86
2022/01/17 08:21:47;;;;;;;11.90;7.82;;;17.00;62.60;;;;;;4998949;28;45689;-84
2022/01/17 08:24:14;;;;;;;13.07;7.95;;;16.80;59.40;;;;;;5002824;28;45308;-85
2022/01/17 08:26:43;;;;;;;13.60;7.93;;;17.40;61.50;;;;;;5002365;28;45059;-85
2022/01/17 08:29:10;;;;;;;15.15;8.00;;;16.80;60.00;;;;;;5002874;28;45510;-85
2022/01/17 08:31:38;;;;;;;14.52;8.40;;;16.90;59.90;;;;;;5001652;28;47012;-85
2022/01/17 08:34:05;;;;;;;13.43;8.43;;;16.80;62.00;;;;;;5001750;28;45293;-86
2022/01/17 08:36:33;;;;;;;13.80;8.55;;;17.00;59.70;;;;;;5003093;28;44804;-86
2022/01/17 08:39:03;;;;;;;10.38;7.22;;;16.80;60.60;;;;;;5004847;28;45159;-87
2022/01/17 08:41:30;;;;;;;12.70;7.80;;;15.30;58.70;;;;;;5003917;28;47261;-87
2022/01/17 08:43:58;;;;;;;13.95;7.95;;;18.00;62.90;;;;;;5005285;28;45287;-87
2022/01/17 08:46:25;;;;;;;12.45;8.20;;;16.50;61.80;;;;;;5005298;28;44956;-87
2022/01/17 08:48:53;;;;;;;12.80;7.78;;;17.00;62.20;;;;;;5005964;28;44986;-88
2022/01/17 08:51:21;;;;;;;15.63;8.23;;;17.10;60.00;;;;;;5004758;28;48126;-87
2022/01/17 08:53:49;;;;;;;15.07;8.52;;;18.10;62.60;;;;;;4984415;28;45616;-87
2022/01/17 08:56:18;;;;;;;14.90;8.18;;;17.10;59.50;;;;;;4997537;28;45269;-86
2022/01/17 08:58:46;;;;;;;15.10;8.73;;;17.00;65.30;;;;;;5001646;28;45346;-86
2022/01/17 09:01:14;;;;;;;13.65;8.98;;;17.00;60.30;;;;;;5002794;28;47292;-86
2022/01/17 09:03:44;;;;;;;13.82;8.82;;;18.60;61.20;;;;;;5001731;28;45092;-85
2022/01/17 09:06:13;;;;;;;14.57;8.32;;;17.00;58.40;;;;;;5002205;28;45585;-86
2022/01/17 09:08:40;;;;;;;14.00;8.68;;;16.90;58.00;;;;;;5002694;28;45660;-85
2022/01/17 09:11:09;;;;;;;14.75;8.25;;;16.70;61.10;;;;;;5001783;28;47496;-85
2022/01/17 09:13:41;;;;;;;13.07;8.48;;;16.70;61.60;;;;;;5004781;28;45576;-87
2022/01/17 09:16:09;;;;;;;13.70;9.00;;;17.10;59.80;;;;;;5005734;28;45161;-88
2022/01/17 09:18:38;;;;;;;13.02;8.30;;;16.90;61.40;;;;;;5002731;28;45419;-87
2022/01/17 09:21:08;;;;;;;14.45;8.85;;;16.90;61.60;;;;;;5003174;28;47677;-86
2022/01/17 09:23:36;;;;;;;14.07;8.95;;;16.70;58.80;;;;;;5002523;28;45411;-86
2022/01/17 09:26:05;;;;;;;14.73;8.52;;;16.70;58.50;;;;;;5002502;28;45373;-86
2022/01/17 09:28:35;;;;;;;14.48;9.32;;;17.70;61.00;;;;;;5002322;28;45106;-87
2022/01/17 09:31:07;;;;;;;12.63;7.80;;;17.10;59.20;;;;;;5002686;28;47651;-86
2022/01/17 09:33:35;;;;;;;14.48;9.00;;;17.10;63.80;;;;;;5002257;28;45169;-86
2022/01/17 09:36:05;;;;;;;12.50;8.73;;;16.60;64.80;;;;;;5001746;28;44834;-87
2022/01/17 09:38:33;;;;;;;14.38;9.20;;;16.80;58.50;;;;;;5003542;28;44878;-87
2022/01/17 09:41:02;;;;;;;13.43;7.93;;;17.00;63.70;;;;;;4996887;28;46504;-86
2022/01/17 09:43:31;;;;;;;14.27;8.57;;;17.20;60.10;;;;;;5002853;28;45320;-86
2022/01/17 09:45:59;;;;;;;13.20;7.32;;;16.80;57.70;;;;;;5001103;28;45219;-86
2022/01/17 09:48:35;;;;;;;13.35;8.52;;;16.80;61.50;;;;;;4998686;28;45110;-86
2022/01/17 09:51:15;;;;;;;12.82;8.35;;;15.00;58.50;;;;;;4997823;28;46271;-84
2022/01/17 09:53:45;;;;;;;11.00;7.43;;;16.70;58.20;;;;;;5002159;28;45290;-87
2022/01/17 09:56:20;;;;;;;15.02;9.02;;;16.70;57.80;;;;;;5005559;28;45312;-87
2022/01/17 09:58:47;;;;;;;11.20;7.55;;;16.90;61.40;;;;;;5005395;28;44835;-87
2022/01/17 10:01:15;;;;;;;13.05;8.30;;;16.90;64.30;;;;;;5003481;28;47483;-86
2022/01/17 10:03:46;;;;;;;13.95;8.40;;;16.70;60.80;;;;;;4992078;28;45248;-87
2022/01/17 10:06:18;;;;;;;12.80;8.48;;;16.60;61.50;;;;;;5004579;28;44772;-88
2022/01/17 10:08:47;;;;;;;10.70;7.35;;;17.20;58.70;;;;;;5005767;28;45139;-88
2022/01/17 10:11:22;;;;;;;11.73;7.60;;;17.00;63.00;;;;;;5004454;28;45845;-87
2022/01/17 10:13:56;;;;;;;10.35;7.90;;;16.80;60.30;;;;;;5004044;28;45241;-86
2022/01/17 10:16:27;;;;;;;11.63;7.60;;;16.90;63.90;;;;;;5002365;28;45416;-86
2022/01/17 10:19:03;;;;;;;12.57;8.05;;;16.90;58.30;;;;;;5002357;28;45194;-87
2022/01/17 10:21:42;;;;;;;10.73;7.40;;;16.70;60.40;;;;;;5000957;28;46348;-85
2022/01/17 10:24:20;;;;;;;12.23;7.47;;;16.90;58.30;;;;;;5001546;28;44845;-86
2022/01/17 10:27:06;;;;;;;10.50;7.72;;;16.70;58.80;;;;;;5000603;28;45193;-86
2022/01/17 10:35:23;;;;;;;11.60;7.45;;;17.00;61.20;;;;;;5005581;28;45224;-87
2022/01/17 10:38:05;;;;;;;9.68;6.25;;;16.90;58.50;;;;;;5005698;28;45175;-86
2022/01/17 10:40:37;;;;;;;9.93;6.57;;;16.80;57.80;;;;;;5000923;28;44748;-85
2022/01/17 10:43:06;;;;;;;11.80;7.22;;;16.80;57.80;;;;;;4998110;28;48295;-87
2022/01/17 10:45:40;;;;;;;9.88;6.63;;;16.80;60.40;;;;;;5000250;28;44848;-85
2022/01/17 10:48:09;;;;;;;10.75;6.90;;;16.80;57.70;;;;;;5001215;28;45305;-85
2022/01/17 10:50:44;;;;;;;10.23;7.00;;;16.80;59.40;;;;;;4981028;28;45194;-85
2022/01/17 10:53:17;;;;;;;8.57;6.05;;;16.80;58.10;;;;;;4981830;28;45308;-85
2022/01/17 10:55:49;;;;;;;9.82;6.68;;;16.80;60.00;;;;;;4991936;28;45128;-87
2022/01/17 10:58:23;;;;;;;10.18;6.18;;;17.10;60.80;;;;;;5004807;28;45216;-87
2022/01/17 11:00:53;;;;;;;7.85;5.53;;;17.00;58.40;;;;;;5003755;28;45403;-87
2022/01/17 11:03:26;;;;;;;7.47;5.60;;;17.60;60.10;;;;;;4994833;28;47938;-87
2022/01/17 11:05:57;;;;;;;8.88;5.50;;;16.80;62.40;;;;;;5001411;28;45001;-87
2022/01/17 11:08:27;;;;;;;8.60;5.95;;;18.80;61.70;;;;;;4990189;28;45495;-87
2022/01/17 11:10:56;;;;;;;9.32;6.18;;;17.00;62.60;;;;;;4989186;28;45315;-86
2022/01/17 11:13:28;;;;;;;9.57;5.72;;;18.50;62.40;;;;;;5001173;28;46502;-87
2022/01/17 11:15:58;;;;;;;9.68;6.35;;;17.20;61.10;;;;;;5000601;28;45491;-86
2022/01/17 11:18:30;;;;;;;9.10;5.95;;;16.70;61.30;;;;;;5000501;28;44870;-86
2022/01/17 11:21:10;;;;;;;8.43;5.10;;;18.40;64.00;;;;;;5004678;28;45031;-88
2022/01/17 11:23:49;;;;;;;8.00;5.50;;;17.20;61.50;;;;;;5007108;28;45315;-87
2022/01/17 11:26:18;;;;;;;9.05;5.45;;;17.10;58.70;;;;;;5005977;28;45090;-87
2022/01/17 11:28:56;;;;;;;9.05;5.45;;;17.20;60.40;;;;;;5004634;28;44756;-87
2022/01/17 11:31:27;;;;;;;9.00;5.53;;;17.30;61.70;;;;;;5002247;28;45343;-88
2022/01/17 11:33:57;;;;;;;8.15;5.82;;;17.10;61.20;;;;;;4983228;28;45396;-87
2022/01/17 11:36:46;;;;;;;7.60;5.22;;;16.60;62.70;;;;;;4997025;28;45211;-87
2022/01/17 11:42:59;;;;;;;8.30;4.97;;;17.00;63.00;;;;;;5002641;28;44892;-87
2022/01/17 11:45:46;;;;;;;9.30;5.07;;;17.00;58.30;;;;;;5009765;28;45650;-87
2022/01/17 11:48:55;;;;;;;8.32;5.03;;;17.00;59.10;;;;;;4999281;28;45128;-87
2022/01/17 11:54:20;;;;;;;7.50;4.70;;;17.20;59.60;;;;;;5007178;28;44894;-87
2022/01/17 11:56:51;;;;;;;9.02;5.38;;;16.90;58.90;;;;;;5005543;28;45599;-87
2022/01/17 11:59:38;;;;;;;9.38;4.57;;;16.80;58.60;;;;;;5004967;28;45362;-86
2022/01/17 12:02:41;;;;;;;7.15;4.60;;;16.70;59.00;;;;;;5012193;28;45331;-87
2022/01/17 12:05:44;;;;;;;7.07;4.38;;;16.90;58.50;;;;;;4996842;28;45369;-87
2022/01/17 12:08:17;;;;;;;7.38;4.40;;;16.80;58.70;;;;;;4983941;28;46728;-87
2022/01/17 12:10:50;;;;;;;8.05;4.80;;;17.90;59.60;;;;;;4995707;28;45390;-87
2022/01/17 12:13:42;;;;;;;5.95;4.47;;;16.90;58.60;;;;;;5004365;28;45309;-88
2022/01/17 12:16:29;;;;;;;6.90;4.20;;;15.10;56.70;;;;;;4987554;28;45096;-87
2022/01/17 12:19:12;;;;;;;7.47;4.72;;;17.80;60.00;;;;;;4999124;28;47331;-87
2022/01/17 12:21:46;;;;;;;9.05;4.68;;;17.60;59.50;;;;;;5004245;28;45241;-86
2022/01/17 12:25:07;;;;;;;6.43;4.05;;;17.00;59.20;;;;;;5009511;28;45400;-87
2022/01/17 12:27:39;;;;;;;9.20;4.20;;;17.30;59.70;;;;;;4989357;28;44818;-87
2022/01/17 12:30:25;;;;;;;8.43;4.18;;;16.80;62.20;;;;;;5000908;28;45260;-87
2022/01/17 12:32:55;;;;;;;6.78;4.05;;;16.90;58.10;;;;;;5009538;28;45217;-89
2022/01/17 12:35:32;;;;;;;6.25;4.00;;;17.10;61.60;;;;;;5000464;28;45229;-84
